PWSweather.com
Personal Weather Stations
Station Observations
WISCHPK61
Green Bay Schmitt Park, Green Bay, WI 54311

Green Bay Schmitt ParkGreen Bay, WI 54311

Lat: 44.514277, Lon: -87.935067

Elevation: 735

Station Type: Acu Rite Pro Weather Center model 02032C

http://greenbayweathercam.com

High Low Average
Temperature 31.3°F-0.4°C 27.9°F-2.3°C 29.2°F-1.6°C
Dew Point 31.1°F-0.5°C 25.4°F-3.7°C 28.4°F-2.0°C
Winds 2.3 mph 3.7 kmh Calm Calm Calm WSWCalm WSW
Wind Gusts 8.1 mph13.0 kmh -- 1.0 mph1.6 kmh
Humidity 99% 84% 96%
Pressure 29.44 in997.0 mb 29.15 in987.1 mb -
Precipitation 0.00 in0.0 mm - -
Hour Temp Dew Point Humidity Winds Wind Gusts Pressure Precip Precip Rate Daily Precip Total
12:00 AM 27.9°F-2.3°C 27.7°F-2.4°C 99% Calm Calm -- 29.44 in997.0 mb - 0.00 in0.0 mm 0.00 in0.0 mm
01:00 AM 28.0°F-2.2°C 27.3°F-2.6°C 97% Calm Calm -- 29.43 in996.6 mb - 0.00 in0.0 mm 0.00 in0.0 mm
02:00 AM 28.2°F-2.1°C 27.7°F-2.4°C 98% Calm Calm -- 29.43 in996.6 mb - 0.00 in0.0 mm 0.00 in0.0 mm
03:00 AM 28.2°F-2.1°C 28.0°F-2.2°C 99% Calm Calm -- 29.43 in996.6 mb - 0.00 in0.0 mm 0.00 in0.0 mm
04:00 AM 28.4°F-2.0°C 28.2°F-2.1°C 99% Calm Calm -- 29.42 in996.3 mb - 0.00 in0.0 mm 0.00 in0.0 mm
05:00 AM 28.4°F-2.0°C 27.9°F-2.3°C 98% Calm Calm -- 29.41 in995.9 mb - 0.00 in0.0 mm 0.00 in0.0 mm
06:00 AM 28.2°F-2.1°C 27.7°F-2.4°C 98% Calm Calm -- 29.40 in995.6 mb - 0.00 in0.0 mm 0.00 in0.0 mm
07:00 AM 28.2°F-2.1°C 25.4°F-3.7°C 89% Calm Calm -- 29.39 in995.3 mb - 0.00 in0.0 mm 0.00 in0.0 mm
08:00 AM 28.2°F-2.1°C 28.0°F-2.2°C 99% Calm Calm -- 29.38 in994.9 mb - 0.00 in0.0 mm 0.00 in0.0 mm
09:00 AM 28.6°F-1.9°C 28.4°F-2.0°C 99% Calm Calm -- 29.37 in994.6 mb - 0.00 in0.0 mm 0.00 in0.0 mm
10:00 AM 29.3°F-1.5°C 27.8°F-2.3°C 94% Calm Calm -- 29.35 in993.9 mb - 0.00 in0.0 mm 0.00 in0.0 mm
11:00 AM 30.0°F-1.1°C 29.8°F-1.2°C 99% Calm Calm -- 29.32 in992.9 mb - 0.00 in0.0 mm 0.00 in0.0 mm
12:00 PM 30.0°F-1.1°C 29.8°F-1.2°C 99% 2.3 mph S3.7 kmh S 4.6 mph7.4 kmh 29.27 in991.2 mb - 0.00 in0.0 mm 0.00 in0.0 mm
01:00 PM 29.1°F-1.6°C 28.9°F-1.7°C 99% Calm Calm 8.1 mph13.0 kmh 29.25 in990.5 mb - 0.00 in0.0 mm 0.00 in0.0 mm
02:00 PM 29.1°F-1.6°C 28.9°F-1.7°C 99% Calm Calm -- 29.21 in989.2 mb - 0.00 in0.0 mm 0.00 in0.0 mm
03:00 PM 29.5°F-1.4°C 29.3°F-1.5°C 99% Calm Calm -- 29.20 in988.8 mb - 0.00 in0.0 mm 0.00 in0.0 mm
04:00 PM 29.7°F-1.3°C 25.5°F-3.6°C 84% Calm Calm 2.3 mph3.7 kmh 29.17 in987.8 mb - 0.00 in0.0 mm 0.00 in0.0 mm
05:00 PM 29.8°F-1.2°C 29.6°F-1.3°C 99% 2.3 mph W3.7 kmh W 3.5 mph5.6 kmh 29.15 in987.1 mb - 0.00 in0.0 mm 0.00 in0.0 mm
06:00 PM 29.8°F-1.2°C 26.7°F-2.9°C 88% 1.2 mph WNW1.9 kmh WNW 1.2 mph1.9 kmh 29.17 in987.8 mb - 0.00 in0.0 mm 0.00 in0.0 mm
07:00 PM 29.8°F-1.2°C 29.3°F-1.5°C 98% Calm Calm -- 29.17 in987.8 mb - 0.00 in0.0 mm 0.00 in0.0 mm
08:00 PM 30.2°F-1.0°C 30.0°F-1.1°C 99% Calm Calm -- 29.17 in987.8 mb - 0.00 in0.0 mm 0.00 in0.0 mm
09:00 PM 30.7°F-0.7°C 30.5°F-0.8°C 99% Calm Calm -- 29.17 in987.8 mb - 0.00 in0.0 mm 0.00 in0.0 mm
10:00 PM 31.3°F-0.4°C 31.1°F-0.5°C 99% 1.2 mph NW1.9 kmh NW 4.6 mph7.4 kmh 29.20 in988.8 mb - 0.00 in0.0 mm 0.00 in0.0 mm
11:00 PM 31.1°F-0.5°C 27.1°F-2.7°C 85% Calm Calm -- 29.23 in989.8 mb - 0.00 in0.0 mm 0.00 in0.0 mm